Latest Coastal Weather Observations for Hervey Bay

IDQ60701

Issued at 5:42 am EST Wednesday 1 July 2015 (issued every 10 minutes, with the page automatically refreshed every 10 minutes)

About coastal observations | Map of coastal stations | Coastal observations for QLD | Marine services | Other Formats
Station Details ID: 040405 Name: HERVEY BAY AIRPORT Lat: -25.32 Lon: 152.88 Height: 12.98 m
Data from the previous 72 hours. | See also: Recent months at Hervey Bay
Date/Time
EST
Temp

°C
Wind Pressure Rain
since 9am
mm
Weather Cloud Vis
km
Sea
Height
m
Swell
Dir
 
Speed
knots
Gust
knots
hPa Trend Height
m
Period
s
Dir
01/05:30am 15.0 SW 6 7 1022.8 - 0.0 - Partly cloudy 10 - - - -
01/05:00am 15.3 SW 4 6 1022.7 - 0.0 - Cloudy 10 - - - -
01/04:30am 15.1 WSW 5 6 1022.7 - 0.0 - Partly cloudy 10 - - - -
01/04:00am 15.1 SSW 4 6 1022.5 - 0.0 - Partly cloudy 10 - - - -
01/03:30am 14.9 SSW 2 5 1022.4 - 0.0 - - 10 - - - -
01/03:00am 15.2 SW 3 4 1022.7 - 0.0 - Cloudy 10 - - - -
01/02:30am 15.4 SW 4 5 1022.9 - 0.0 - - 10 - - - -
01/02:00am 15.4 SSW 4 5 1023.0 - 0.0 - - 10 - - - -
01/01:30am 15.5 SSW 3 4 1023.5 - 0.0 - - 10 - - - -
01/01:00am 15.6 SSW 5 6 1023.8 - 0.0 - - 10 - - - -
01/12:30am 15.5 SSW 5 6 1024.0 - 0.0 - - 10 - - - -
 
Date/Time
EST
Temp

°C
Wind Pressure Rain
since 9am
mm
Weather Cloud Vis
km
Sea
Height
m
Swell
Dir
 
Speed
knots
Gust
knots
hPa Trend Height
m
Period
s
Dir
30/11:30pm 15.4 SW 2 3 1024.5 - 0.0 - - 10 - - - -
30/11:00pm 16.3 SW 3 4 1024.7 - 0.0 - - 10 - - - -
30/10:30pm 16.4 SSW 5 6 1024.9 - 0.0 - - 10 - - - -
30/10:00pm 16.2 SSW 4 5 1024.8 - 0.0 - - 10 - - - -
30/09:30pm 15.6 SSW 4 4 1024.9 - 0.0 - - 10 - - - -
30/09:00pm 15.8 S 3 4 1024.8 - 0.0 - Mostly cloudy 10 - - - -
30/08:30pm 15.6 SSW 4 4 1024.7 - 0.0 - - 10 - - - -
30/08:00pm 15.9 S 3 4 1024.5 - 0.0 - - 10 - - - -
30/07:30pm 16.0 SSW 3 3 1024.4 - 0.0 - - 10 - - - -
30/07:00pm 16.6 SSW 3 4 1024.2 - 0.0 - Partly cloudy 10 - - - -
30/06:30pm 17.6 SSE 4 5 1024.0 - 0.0 - Partly cloudy 10 - - - -
30/06:00pm 17.8 S 4 5 1023.8 - 0.0 - Mostly clear 10 - - - -
30/05:30pm 19.0 SE 5 7 1023.3 - 0.0 - Partly cloudy 10 - - - -
30/05:00pm 19.7 SE 5 7 1023.4 - 0.0 - - 10 - - - -
30/04:30pm 20.9 SE 4 6 1023.4 - 0.0 - - 10 - - - -
30/04:00pm 21.5 ESE 5 7 1023.4 - 0.0 - - 10 - - - -
30/03:30pm 21.6 ESE 7 9 1023.3 - 0.0 - - 10 - - - -
30/03:00pm 21.2 E 8 11 1023.2 - 0.0 - Partly cloudy 10 - - - -
30/02:30pm 22.3 SE 7 11 1023.2 - 0.0 - - 10 - - - -
30/02:00pm 22.4 ESE 8 12 1023.4 - 0.0 - - 10 - - - -
30/01:30pm 22.2 ESE 9 12 1023.7 - 0.0 - Partly cloudy 10 - - - -
30/01:00pm 21.7 ESE 9 14 1024.0 - 0.0 - Partly cloudy 10 - - - -
30/12:30pm 21.6 ESE 10 13 1024.5 - 0.0 - Partly cloudy 10 - - - -
30/12:00pm 22.2 SE 7 10 1024.8 - 0.0 - Cloudy 10 - - - -
30/11:30am 22.2 SE 8 11 1025.1 - 0.0 - Partly cloudy 10 - - - -
30/11:00am 21.5 S 8 12 1025.7 - 0.0 - Partly cloudy 10 - - - -
30/10:30am 21.2 S 7 10 1025.8 - 0.0 - - 10 - - - -
30/10:00am 20.6 SSW 9 12 1026.2 - 0.0 - - 10 - - - -
30/09:30am 19.7 SSW 8 12 1026.4 - 0.0 - - 10 - - - -
30/09:00am 18.7 S 9 15 1026.6 - 1.0 - - 10 - - - -
30/08:30am 18.0 S 7 11 1026.4 - 1.0 - - 10 - - - -
30/08:00am 16.7 SSW 7 11 1026.2 - 1.0 - - 10 - - - -
30/07:30am 15.8 SSW 7 10 1026.0 - 1.0 - - 10 - - - -
30/07:00am 15.3 SSW 6 7 1025.5 - 1.0 - - 10 - - - -
30/06:30am 15.2 S 6 9 1025.4 - 1.0 - - 10 - - - -
30/06:00am 15.3 SSW 7 9 1025.3 - 0.8 - - 10 - - - -
30/05:30am 15.4 SSW 7 9 1025.2 - 0.8 - - 10 - - - -
30/05:00am 15.5 S 7 12 1025.2 - 0.8 - - 10 - - - -
30/04:30am 15.5 S 8 13 1025.2 - 0.8 - - 10 - - - -
30/04:00am 15.4 SSW 7 11 1025.5 - 0.8 - - 10 - - - -
30/03:30am 15.5 SSW 8 11 1026.0 - 0.8 - Partly cloudy 10 - - - -
30/03:00am 15.6 SSW 7 10 1026.0 - 0.8 - - 10 - - - -
30/02:30am 15.7 SSW 8 10 1026.0 - 0.8 - Partly cloudy 10 - - - -
30/02:00am 15.9 SSW 7 11 1026.0 - 0.8 - Partly cloudy 10 - - - -
30/01:30am 16.2 SSW 8 13 1026.4 - 0.8 - Partly cloudy 10 - - - -
30/01:00am 16.7 SSW 10 15 1026.5 - 0.8 - Partly cloudy 10 - - - -
30/12:30am 17.7 S 5 8 1026.3 - 0.8 - Partly cloudy 10 - - - -
30/12:00am 16.5 SSW 7 12 1026.4 - 0.8 - Partly cloudy 10 - - - -
 
Date/Time
EST
Temp

°C
Wind Pressure Rain
since 9am
mm
Weather Cloud Vis
km
Sea
Height
m
Swell
Dir
 
Speed
knots
Gust
knots
hPa Trend Height
m
Period
s
Dir
29/11:30pm 16.5 SSW 9 13 1026.5 - 0.8 - Partly cloudy 10 - - - -
29/11:00pm 16.4 SSW 7 9 1026.7 - 0.8 - Partly cloudy 10 - - - -
29/10:30pm 16.1 SSW 6 8 1026.8 - 0.8 - Partly cloudy 10 - - - -
29/10:00pm 16.1 SSW 7 9 1026.9 - 0.8 - - 10 - - - -
29/09:30pm 16.1 SSW 6 8 1027.0 - 0.8 - - 10 - - - -
29/09:00pm 16.3 SSW 6 8 1027.2 - 0.8 - - 10 - - - -
29/08:30pm 16.5 SSW 5 7 1027.1 - 0.8 - Partly cloudy 10 - - - -
29/08:00pm 16.6 SSW 6 9 1026.9 - 0.8 - - 10 - - - -
29/07:30pm 15.5 SSW 5 6 1026.9 - 0.8 - - 10 - - - -
29/07:00pm 16.0 SSE 5 5 1026.6 - 0.8 - - 10 - - - -
29/06:30pm 17.3 SSE 4 4 1026.6 - 0.8 - - 10 - - - -
29/06:00pm 19.0 SE 5 7 1026.2 - 0.8 - Mostly clear 10 - - - -
29/05:30pm 19.9 SE 7 9 1025.7 - 0.8 - Partly cloudy 10 - - - -
29/05:00pm 20.5 ESE 9 13 1025.4 - 0.8 - Partly cloudy 10 - - - -
29/04:30pm 21.1 ESE 11 16 1025.2 - 0.8 - Partly cloudy 10 - - - -
29/04:00pm 21.4 SE 9 13 1025.2 - 0.8 - Partly cloudy 10 - - - -
29/03:30pm 22.0 ESE 12 19 1025.2 - 0.8 - Partly cloudy 10 - - - -
29/03:00pm 22.4 ESE 11 17 1025.4 - 0.8 Recent precip. - 10 - - - -
29/02:30pm 22.6 ESE 14 20 1025.9 - 0.6 - Partly cloudy 10 - - - -
29/02:00pm 22.8 ESE 13 19 1026.0 - 0.6 - Partly cloudy 10 - - - -
29/01:30pm 23.2 ESE 13 18 1026.6 - 0.6 - Partly cloudy 10 - - - -
29/01:00pm 21.9 SSE 7 11 1027.1 - 0.6 - Partly cloudy 10 - - - -
29/12:30pm 20.7 SSE 7 10 1027.3 - 0.6 - Partly cloudy 10 - - - -
29/12:00pm 22.4 SE 8 11 1027.4 - 0.6 - Cloudy 10 - - - -
29/11:30am 21.8 SE 7 11 1027.6 - 0.6 - Partly cloudy 10 - - - -
29/11:00am 21.5 S 6 8 1028.0 - 0.6 - Partly cloudy 10 - - - -
29/10:30am 19.6 SSW 7 12 1028.3 - 0.6 - Partly cloudy 10 - - - -
29/10:00am 18.3 SSW 7 10 1028.5 - 0.6 - Partly cloudy 10 - - - -
29/09:30am 18.0 S 7 11 1028.8 - 0.2 - Partly cloudy 10 - - - -
29/09:00am 18.0 SSW 8 13 1029.1 - 0.6 - Cloudy 10 - - - -
29/08:30am 18.0 SSW 7 10 1029.2 - 0.6 - Partly cloudy 10 - - - -
29/08:00am 17.3 SSW 7 10 1028.5 - 0.6 - Partly cloudy 10 - - - -
29/07:30am 16.0 SSW 7 9 1028.1 - 0.6 - - 10 - - - -
29/07:00am 15.3 SSW 7 10 1027.7 - 0.6 - Partly cloudy 10 - - - -
29/06:30am 15.0 SW 6 8 1027.4 - 0.6 - Partly cloudy 10 - - - -
29/06:00am 15.0 SW 7 8 1027.3 - 0.6 - Partly cloudy 10 - - - -
29/05:30am 14.9 SW 7 9 1027.1 - 0.6 - - 10 - - - -
29/05:21am 14.9 SW 6 8 1027.0 - 0.6 - Partly cloudy 10 - - - -
29/05:00am 15.0 SW 7 8 1026.8 - 0.6 - Partly cloudy 10 - - - -
29/04:59am 15.0 SW 7 8 1026.8 - 0.6 - Partly cloudy 10 - - - -
29/04:49am 15.0 SW 6 9 1026.8 - 0.6 - Partly cloudy 5 - - - -
29/04:30am 15.1 SW 5 8 1026.7 - 0.6 - Partly cloudy 3 - - - -
29/04:00am 14.9 SSW 7 10 1026.5 - 0.6 - Partly cloudy 5 - - - -
29/03:59am 14.9 SSW 7 10 1026.5 - 0.6 - Partly cloudy 5 - - - -
29/03:48am 15.0 SSW 7 9 1026.5 - 0.6 - Partly cloudy 10 - - - -
29/03:30am 14.9 SSW 6 8 1026.6 - 0.6 - - 4 - - - -
29/03:00am 15.1 SSW 6 8 1026.9 - 0.6 - - 4 - - - -
29/02:30am 15.0 SSW 6 7 1026.9 - 0.6 - - 6 - - - -
29/02:11am 15.2 SSW 6 7 1026.9 - 0.6 - - 5 - - - -
29/02:06am 15.2 SSW 6 7 1027.0 - 0.6 - - 6 - - - -
29/02:00am 15.3 SSW 5 7 1027.0 - 0.6 - - 6 - - - -
29/01:55am 15.3 SSW 6 7 1027.1 - 0.6 - Partly cloudy 5 - - - -
29/01:30am 15.5 SSW 6 7 1027.2 - 0.4 - - 8 - - - -
29/01:00am 15.7 SSW 6 7 1027.5 - 0.4 - - 8 - - - -
29/12:30am 15.9 SSW 5 7 1027.5 - 0.4 - Partly cloudy 10 - - - -
29/12:00am 16.0 SSW 5 6 1027.8 - 0.4 - - 10 - - - -
 
Date/Time
EST
Temp

°C
Wind Pressure Rain
since 9am
mm
Weather Cloud Vis
km
Sea
Height
m
Swell
Dir
 
Speed
knots
Gust
knots
hPa Trend Height
m
Period
s
Dir
28/11:30pm 16.4 SSW 6 7 1028.1 - 0.4 - Partly cloudy 10 - - - -
28/11:00pm 16.0 SW 4 5 1028.2 - 0.4 - Partly cloudy 10 - - - -
28/10:30pm 16.3 SW 1 3 1028.4 - 0.4 - Partly cloudy 10 - - - -
28/10:00pm 16.8 CALM 0 3 1028.6 - 0.4 - Cloudy 10 - - - -
28/09:30pm 17.1 SSW 5 6 1028.7 - 0.4 - Partly cloudy 10 - - - -
28/09:00pm 17.9 SSE 5 8 1028.7 - 0.4 - Cloudy 10 - - - -
28/08:30pm 17.4 SE 5 8 1028.7 - 0.4 - Partly cloudy 10 - - - -
28/08:00pm 17.4 SSE 5 6 1028.6 - 0.4 - Partly cloudy 10 - - - -
28/07:30pm 17.8 SSE 4 5 1028.5 - 0.4 - Partly cloudy 10 - - - -
28/07:00pm 18.1 SSE 6 9 1028.1 - 0.4 - Partly cloudy 10 - - - -
28/06:30pm 18.2 SSE 6 8 1027.9 - 0.2 - Partly cloudy 10 - - - -
28/06:00pm 18.2 SSE 6 8 1027.5 - 0.2 - Cloudy 10 - - - -
28/05:30pm 18.5 SE 8 13 1027.5 - 0.2 - Partly cloudy 10 - - - -
28/05:00pm 18.9 SE 8 13 1027.2 - 0.2 - Partly cloudy 10 - - - -
28/04:30pm 18.5 SSE 5 6 1027.1 - 0.2 - Partly cloudy 10 - - - -
28/04:00pm 18.5 SSE 8 16 1027.0 - 0.2 - Partly cloudy 7 - - - -
28/03:30pm 21.7 ESE 11 16 1026.4 - 0.0 - Partly cloudy 10 - - - -
28/03:00pm 22.9 ESE 11 16 1026.2 - 0.0 - - 10 - - - -
28/02:30pm 23.2 ESE 10 15 1026.3 - 0.0 - - 10 - - - -
28/02:00pm 23.5 ESE 11 15 1026.3 - 0.0 - - 10 - - - -
28/01:30pm 23.1 ESE 13 19 1026.3 - 0.0 - - 10 - - - -
28/01:00pm 23.3 ESE 13 17 1026.4 - 0.0 - - 10 - - - -
28/12:30pm 23.4 ESE 13 19 1026.5 - 0.0 - - 10 - - - -
28/12:00pm 23.1 ESE 13 19 1026.9 - 0.0 - - 10 - - - -
28/11:30am 22.9 SE 11 18 1027.1 - 0.0 - Partly cloudy 10 - - - -
28/11:00am 22.3 SE 9 16 1027.4 - 0.0 - Partly cloudy 10 - - - -
28/10:30am 21.6 SE 8 12 1027.6 - 0.0 - Partly cloudy 10 - - - -
28/10:00am 20.8 SSE 7 9 1027.8 - 0.0 - Partly cloudy 10 - - - -
28/09:30am 20.7 SSE 7 13 1028.0 - 0.0 - Partly cloudy 10 - - - -
28/09:00am 18.4 SSW 7 10 1028.3 - 3.4 - - 10 - - - -
28/08:54am 18.1 SSW 7 9 1028.4 - 3.4 - Partly cloudy 10 - - - -
28/08:30am 16.7 SSW 8 11 1028.5 - 3.4 - Cloudy 10 - - - -
28/08:00am 16.2 SSW 8 11 1028.3 - 3.4 - Partly cloudy 10 - - - -
28/07:57am 16.3 SW 8 11 1028.3 - 3.4 - Partly cloudy 10 - - - -
28/07:56am 16.2 SW 8 11 1028.3 - 3.4 - Partly cloudy 10 - - - -
28/07:52am 16.5 SW 8 9 1028.3 - 3.4 - Partly cloudy 10 - - - -
28/07:38am 16.1 SW 5 9 1028.6 - 2.8 - Partly cloudy 5 - - - -
28/07:32am 16.0 SW 3 5 1028.5 - 2.4 - Partly cloudy 10 - - - -
28/07:30am 15.9 SW 3 5 1028.5 - 2.4 - Partly cloudy 10 - - - -
28/07:00am 16.0 SSW 8 11 1028.1 - 2.2 - Partly cloudy 10 - - - -
28/06:30am 15.9 SSW 7 9 1027.7 - 2.2 - Partly cloudy 10 - - - -
28/06:18am 15.9 SSW 8 11 1027.4 - 2.2 - Partly cloudy 10 - - - -
28/06:00am 15.9 SSW 9 12 1027.2 - 2.2 - Partly cloudy 10 - - - -

Other Formats:

Comma delimited format used in spreadsheet applications
http://www.bom.gov.au/fwo/IDQ60701/IDQ60701.95565.axf

JavaScript Object Notation format (JSON) in row-major order
http://www.bom.gov.au/fwo/IDQ60701/IDQ60701.95565.json